sensor_id;sensor_type;location;lat;lon;timestamp;temperature;humidity
37782;DHT22;23621;50.878;4.584;2024-01-15T00:00:48;8.90;63.60
37782;DHT22;23621;50.878;4.584;2024-01-15T00:02:49;8.90;63.80
37782;DHT22;23621;50.878;4.584;2024-01-15T00:04:50;8.80;63.90
37782;DHT22;23621;50.878;4.584;2024-01-15T00:06:50;8.80;63.70
37782;DHT22;23621;50.878;4.584;2024-01-15T00:08:51;8.80;63.90
37782;DHT22;23621;50.878;4.584;2024-01-15T00:10:52;8.80;63.90
37782;DHT22;23621;50.878;4.584;2024-01-15T00:12:53;8.70;64.00
37782;DHT22;23621;50.878;4.584;2024-01-15T00:14:53;8.80;64.10
37782;DHT22;23621;50.878;4.584;2024-01-15T00:16:54;8.80;64.20
37782;DHT22;23621;50.878;4.584;2024-01-15T00:18:55;8.90;64.00
37782;DHT22;23621;50.878;4.584;2024-01-15T00:20:56;8.90;63.90
37782;DHT22;23621;50.878;4.584;2024-01-15T00:22:57;8.70;64.30
37782;DHT22;23621;50.878;4.584;2024-01-15T00:24:58;8.80;64.30
37782;DHT22;23621;50.878;4.584;2024-01-15T00:26:58;8.90;64.20
37782;DHT22;23621;50.878;4.584;2024-01-15T00:28:59;8.90;64.00
37782;DHT22;23621;50.878;4.584;2024-01-15T00:31:00;8.90;64.00
37782;DHT22;23621;50.878;4.584;2024-01-15T00:33:00;9.00;63.90
37782;DHT22;23621;50.878;4.584;2024-01-15T00:35:01;9.10;63.80
37782;DHT22;23621;50.878;4.584;2024-01-15T00:37:03;9.00;63.80
37782;DHT22;23621;50.878;4.584;2024-01-15T00:39:07;9.10;63.90
37782;DHT22;23621;50.878;4.584;2024-01-15T00:41:08;9.00;64.00
37782;DHT22;23621;50.878;4.584;2024-01-15T00:43:08;9.10;64.00
37782;DHT22;23621;50.878;4.584;2024-01-15T00:45:09;9.10;64.00
37782;DHT22;23621;50.878;4.584;2024-01-15T00:47:10;9.10;64.10
37782;DHT22;23621;50.878;4.584;2024-01-15T00:49:14;9.00;64.30
37782;DHT22;23621;50.878;4.584;2024-01-15T00:51:15;9.00;64.50
37782;DHT22;23621;50.878;4.584;2024-01-15T00:53:16;9.00;64.40
37782;DHT22;23621;50.878;4.584;2024-01-15T00:55:16;9.10;64.50
37782;DHT22;23621;50.878;4.584;2024-01-15T00:57:17;9.10;64.30
37782;DHT22;23621;50.878;4.584;2024-01-15T00:59:19;9.10;64.30
37782;DHT22;23621;50.878;4.584;2024-01-15T01:01:21;9.10;64.30
37782;DHT22;23621;50.878;4.584;2024-01-15T01:03:21;9.20;64.30
37782;DHT22;23621;50.878;4.584;2024-01-15T01:05:22;9.20;64.30
37782;DHT22;23621;50.878;4.584;2024-01-15T01:07:23;9.10;64.20
37782;DHT22;23621;50.878;4.584;2024-01-15T01:09:24;9.20;64.30
37782;DHT22;23621;50.878;4.584;2024-01-15T01:11:25;9.20;64.40
37782;DHT22;23621;50.878;4.584;2024-01-15T01:13:25;9.00;66.00
37782;DHT22;23621;50.878;4.584;2024-01-15T01:15:26;8.90;65.90
37782;DHT22;23621;50.878;4.584;2024-01-15T01:17:28;8.80;65.80
37782;DHT22;23621;50.878;4.584;2024-01-15T01:19:29;8.90;65.90
37782;DHT22;23621;50.878;4.584;2024-01-15T01:21:30;8.90;65.80
37782;DHT22;23621;50.878;4.584;2024-01-15T01:23:31;8.90;65.80
37782;DHT22;23621;50.878;4.584;2024-01-15T01:25:32;9.00;65.90
37782;DHT22;23621;50.878;4.584;2024-01-15T01:27:33;9.00;65.90
37782;DHT22;23621;50.878;4.584;2024-01-15T01:29:34;9.00;65.90
37782;DHT22;23621;50.878;4.584;2024-01-15T01:31:35;9.10;66.00
37782;DHT22;23621;50.878;4.584;2024-01-15T01:33:38;9.10;65.90
37782;DHT22;23621;50.878;4.584;2024-01-15T01:35:40;9.20;66.00
37782;DHT22;23621;50.878;4.584;2024-01-15T01:37:41;9.10;66.00
37782;DHT22;23621;50.878;4.584;2024-01-15T01:39:42;9.20;66.00
37782;DHT22;23621;50.878;4.584;2024-01-15T01:41:43;9.20;66.10
37782;DHT22;23621;50.878;4.584;2024-01-15T01:43:44;9.20;66.00
37782;DHT22;23621;50.878;4.584;2024-01-15T01:45:45;9.30;66.00
37782;DHT22;23621;50.878;4.584;2024-01-15T01:47:45;9.20;66.00
37782;DHT22;23621;50.878;4.584;2024-01-15T01:49:46;9.20;66.20
37782;DHT22;23621;50.878;4.584;2024-01-15T01:51:47;9.00;66.50
37782;DHT22;23621;50.878;4.584;2024-01-15T01:53:49;9.10;66.50
37782;DHT22;23621;50.878;4.584;2024-01-15T01:55:50;9.00;66.40
37782;DHT22;23621;50.878;4.584;2024-01-15T01:57:51;9.10;66.40
37782;DHT22;23621;50.878;4.584;2024-01-15T01:59:53;9.10;66.40
37782;DHT22;23621;50.878;4.584;2024-01-15T02:01:57;9.20;66.40
37782;DHT22;23621;50.878;4.584;2024-01-15T02:03:58;9.30;66.30
37782;DHT22;23621;50.878;4.584;2024-01-15T02:06:02;9.30;66.30
37782;DHT22;23621;50.878;4.584;2024-01-15T02:08:02;9.30;66.10
37782;DHT22;23621;50.878;4.584;2024-01-15T02:10:03;9.30;66.10
37782;DHT22;23621;50.878;4.584;2024-01-15T02:12:05;9.30;66.10
37782;DHT22;23621;50.878;4.584;2024-01-15T02:14:06;9.40;66.00
37782;DHT22;23621;50.878;4.584;2024-01-15T02:16:07;9.40;65.90
37782;DHT22;23621;50.878;4.584;2024-01-15T02:18:07;9.40;65.90
37782;DHT22;23621;50.878;4.584;2024-01-15T02:20:08;9.50;65.90
37782;DHT22;23621;50.878;4.584;2024-01-15T02:22:09;9.50;65.80
37782;DHT22;23621;50.878;4.584;2024-01-15T02:24:11;9.50;65.70
37782;DHT22;23621;50.878;4.584;2024-01-15T02:26:12;9.50;66.00
37782;DHT22;23621;50.878;4.584;2024-01-15T02:28:16;9.50;65.90
37782;DHT22;23621;50.878;4.584;2024-01-15T02:30:17;9.50;65.80
37782;DHT22;23621;50.878;4.584;2024-01-15T02:32:18;9.60;65.80
37782;DHT22;23621;50.878;4.584;2024-01-15T02:34:18;9.50;65.70
37782;DHT22;23621;50.878;4.584;2024-01-15T02:36:19;9.40;65.90
37782;DHT22;23621;50.878;4.584;2024-01-15T02:38:20;9.40;66.00
37782;DHT22;23621;50.878;4.584;2024-01-15T02:40:20;9.40;66.20
37782;DHT22;23621;50.878;4.584;2024-01-15T02:42:21;9.40;66.10
37782;DHT22;23621;50.878;4.584;2024-01-15T02:44:22;9.40;66.00
37782;DHT22;23621;50.878;4.584;2024-01-15T02:46:22;9.40;66.00
37782;DHT22;23621;50.878;4.584;2024-01-15T02:48:23;9.50;66.10
37782;DHT22;23621;50.878;4.584;2024-01-15T02:50:24;9.50;66.10
37782;DHT22;23621;50.878;4.584;2024-01-15T02:52:24;9.50;66.10
37782;DHT22;23621;50.878;4.584;2024-01-15T02:54:25;9.60;66.00
37782;DHT22;23621;50.878;4.584;2024-01-15T02:56:26;9.60;65.90
37782;DHT22;23621;50.878;4.584;2024-01-15T02:58:27;9.60;65.70
37782;DHT22;23621;50.878;4.584;2024-01-15T03:00:27;9.60;65.80
37782;DHT22;23621;50.878;4.584;2024-01-15T03:02:28;9.60;65.90
37782;DHT22;23621;50.878;4.584;2024-01-15T03:04:29;9.60;65.90
37782;DHT22;23621;50.878;4.584;2024-01-15T03:06:29;9.60;65.90
37782;DHT22;23621;50.878;4.584;2024-01-15T03:08:30;9.50;66.00
37782;DHT22;23621;50.878;4.584;2024-01-15T03:10:31;9.50;66.00
37782;DHT22;23621;50.878;4.584;2024-01-15T03:12:32;9.50;66.10
37782;DHT22;23621;50.878;4.584;2024-01-15T03:14:33;9.40;66.20
37782;DHT22;23621;50.878;4.584;2024-01-15T03:16:33;9.50;66.30
37782;DHT22;23621;50.878;4.584;2024-01-15T03:18:34;9.40;66.20
37782;DHT22;23621;50.878;4.584;2024-01-15T03:20:35;9.50;66.30
37782;DHT22;23621;50.878;4.584;2024-01-15T03:22:36;9.50;66.20
37782;DHT22;23621;50.878;4.584;2024-01-15T03:24:36;9.60;66.20
37782;DHT22;23621;50.878;4.584;2024-01-15T03:26:37;9.60;66.10
37782;DHT22;23621;50.878;4.584;2024-01-15T03:28:38;9.60;66.00
37782;DHT22;23621;50.878;4.584;2024-01-15T03:30:39;9.60;65.90
37782;DHT22;23621;50.878;4.584;2024-01-15T03:32:39;9.70;65.90
37782;DHT22;23621;50.878;4.584;2024-01-15T03:34:40;9.70;65.80
37782;DHT22;23621;50.878;4.584;2024-01-15T03:36:41;9.70;65.80
37782;DHT22;23621;50.878;4.584;2024-01-15T03:38:42;9.80;65.80
37782;DHT22;23621;50.878;4.584;2024-01-15T03:40:42;9.70;65.60
37782;DHT22;23621;50.878;4.584;2024-01-15T03:42:43;9.70;65.60
37782;DHT22;23621;50.878;4.584;2024-01-15T03:44:44;9.70;65.50
37782;DHT22;23621;50.878;4.584;2024-01-15T03:46:45;9.70;65.60
37782;DHT22;23621;50.878;4.584;2024-01-15T03:48:45;9.70;65.60
37782;DHT22;23621;50.878;4.584;2024-01-15T03:50:46;9.70;65.50
37782;DHT22;23621;50.878;4.584;2024-01-15T03:52:47;9.70;65.50
37782;DHT22;23621;50.878;4.584;2024-01-15T03:54:47;9.70;65.30
37782;DHT22;23621;50.878;4.584;2024-01-15T03:56:48;9.70;65.30
37782;DHT22;23621;50.878;4.584;2024-01-15T03:58:49;9.60;66.20
37782;DHT22;23621;50.878;4.584;2024-01-15T04:00:49;9.60;65.40
37782;DHT22;23621;50.878;4.584;2024-01-15T04:02:50;9.60;65.40
37782;DHT22;23621;50.878;4.584;2024-01-15T04:04:51;9.60;65.50
37782;DHT22;23621;50.878;4.584;2024-01-15T04:06:52;9.50;65.50
37782;DHT22;23621;50.878;4.584;2024-01-15T04:08:52;9.60;65.60
37782;DHT22;23621;50.878;4.584;2024-01-15T04:10:53;9.70;65.70
37782;DHT22;23621;50.878;4.584;2024-01-15T04:12:55;9.70;65.60
37782;DHT22;23621;50.878;4.584;2024-01-15T04:14:56;9.70;65.50
37782;DHT22;23621;50.878;4.584;2024-01-15T04:16:57;9.60;65.30
37782;DHT22;23621;50.878;4.584;2024-01-15T04:18:57;9.50;65.30
37782;DHT22;23621;50.878;4.584;2024-01-15T04:20:58;9.50;65.50
37782;DHT22;23621;50.878;4.584;2024-01-15T04:22:59;9.40;65.40
37782;DHT22;23621;50.878;4.584;2024-01-15T04:25:00;9.40;65.50
37782;DHT22;23621;50.878;4.584;2024-01-15T04:27:00;9.50;66.20
37782;DHT22;23621;50.878;4.584;2024-01-15T04:29:01;9.40;65.30
37782;DHT22;23621;50.878;4.584;2024-01-15T04:31:02;9.50;65.50
37782;DHT22;23621;50.878;4.584;2024-01-15T04:33:03;9.50;65.50
37782;DHT22;23621;50.878;4.584;2024-01-15T04:35:04;9.40;65.20
37782;DHT22;23621;50.878;4.584;2024-01-15T04:37:04;9.40;65.40
37782;DHT22;23621;50.878;4.584;2024-01-15T04:39:05;9.30;65.50
37782;DHT22;23621;50.878;4.584;2024-01-15T04:41:09;9.30;65.40
37782;DHT22;23621;50.878;4.584;2024-01-15T04:43:10;9.10;65.60
37782;DHT22;23621;50.878;4.584;2024-01-15T04:45:10;9.10;65.80
37782;DHT22;23621;50.878;4.584;2024-01-15T04:47:11;9.20;65.90
37782;DHT22;23621;50.878;4.584;2024-01-15T04:49:12;9.10;65.80
37782;DHT22;23621;50.878;4.584;2024-01-15T04:51:13;9.00;65.90
37782;DHT22;23621;50.878;4.584;2024-01-15T04:53:14;9.00;66.00
37782;DHT22;23621;50.878;4.584;2024-01-15T04:55:15;9.10;66.00
37782;DHT22;23621;50.878;4.584;2024-01-15T04:57:15;9.10;65.90
37782;DHT22;23621;50.878;4.584;2024-01-15T04:59:16;9.10;65.90
37782;DHT22;23621;50.878;4.584;2024-01-15T05:01:17;9.10;66.00
37782;DHT22;23621;50.878;4.584;2024-01-15T05:03:18;9.00;66.10
37782;DHT22;23621;50.878;4.584;2024-01-15T05:05:18;9.00;66.20
37782;DHT22;23621;50.878;4.584;2024-01-15T05:07:19;9.00;66.40
37782;DHT22;23621;50.878;4.584;2024-01-15T05:09:20;9.00;66.40
37782;DHT22;23621;50.878;4.584;2024-01-15T05:11:20;9.00;66.80
37782;DHT22;23621;50.878;4.584;2024-01-15T05:13:21;9.10;66.40
37782;DHT22;23621;50.878;4.584;2024-01-15T05:15:22;9.10;66.20
37782;DHT22;23621;50.878;4.584;2024-01-15T05:17:22;9.20;66.30
37782;DHT22;23621;50.878;4.584;2024-01-15T05:19:23;9.20;66.30
37782;DHT22;23621;50.878;4.584;2024-01-15T05:21:23;9.20;66.10
37782;DHT22;23621;50.878;4.584;2024-01-15T05:23:24;9.30;66.10
37782;DHT22;23621;50.878;4.584;2024-01-15T05:25:25;9.40;66.10
37782;DHT22;23621;50.878;4.584;2024-01-15T05:27:26;9.30;65.90
37782;DHT22;23621;50.878;4.584;2024-01-15T05:29:27;9.40;65.90
37782;DHT22;23621;50.878;4.584;2024-01-15T05:31:27;9.40;65.90
37782;DHT22;23621;50.878;4.584;2024-01-15T05:33:28;9.40;65.90
37782;DHT22;23621;50.878;4.584;2024-01-15T05:35:29;9.40;65.90
37782;DHT22;23621;50.878;4.584;2024-01-15T05:37:30;9.40;65.80
37782;DHT22;23621;50.878;4.584;2024-01-15T05:39:31;9.40;65.80
37782;DHT22;23621;50.878;4.584;2024-01-15T05:41:31;9.30;65.70
37782;DHT22;23621;50.878;4.584;2024-01-15T05:43:32;9.40;65.80
37782;DHT22;23621;50.878;4.584;2024-01-15T05:45:35;9.30;65.80
37782;DHT22;23621;50.878;4.584;2024-01-15T05:47:38;9.30;65.90
37782;DHT22;23621;50.878;4.584;2024-01-15T05:49:39;9.20;66.00
37782;DHT22;23621;50.878;4.584;2024-01-15T05:51:39;9.10;65.90
37782;DHT22;23621;50.878;4.584;2024-01-15T05:53:40;9.20;66.00
37782;DHT22;23621;50.878;4.584;2024-01-15T05:55:43;9.20;66.00
37782;DHT22;23621;50.878;4.584;2024-01-15T05:57:44;9.10;65.90
37782;DHT22;23621;50.878;4.584;2024-01-15T05:59:45;9.10;65.90
37782;DHT22;23621;50.878;4.584;2024-01-15T06:01:46;9.20;66.00
37782;DHT22;23621;50.878;4.584;2024-01-15T06:03:46;9.10;66.10
37782;DHT22;23621;50.878;4.584;2024-01-15T06:05:47;9.10;65.90
37782;DHT22;23621;50.878;4.584;2024-01-15T06:07:48;9.10;65.90
37782;DHT22;23621;50.878;4.584;2024-01-15T06:09:48;9.10;65.80
37782;DHT22;23621;50.878;4.584;2024-01-15T06:11:49;9.20;65.80
37782;DHT22;23621;50.878;4.584;2024-01-15T06:13:50;9.10;65.70
37782;DHT22;23621;50.878;4.584;2024-01-15T06:15:51;9.10;65.90
37782;DHT22;23621;50.878;4.584;2024-01-15T06:17:51;9.10;65.80
37782;DHT22;23621;50.878;4.584;2024-01-15T06:19:52;9.00;65.80
37782;DHT22;23621;50.878;4.584;2024-01-15T06:21:53;9.00;65.70
37782;DHT22;23621;50.878;4.584;2024-01-15T06:23:53;9.00;65.70
37782;DHT22;23621;50.878;4.584;2024-01-15T06:25:56;9.00;65.70
37782;DHT22;23621;50.878;4.584;2024-01-15T06:27:57;9.00;65.60
37782;DHT22;23621;50.878;4.584;2024-01-15T06:29:58;9.00;65.50
37782;DHT22;23621;50.878;4.584;2024-01-15T06:31:58;9.00;65.40
37782;DHT22;23621;50.878;4.584;2024-01-15T06:33:59;9.00;65.10
37782;DHT22;23621;50.878;4.584;2024-01-15T06:36:00;9.00;65.00
37782;DHT22;23621;50.878;4.584;2024-01-15T06:38:01;8.90;65.00
37782;DHT22;23621;50.878;4.584;2024-01-15T06:40:01;8.90;65.20
37782;DHT22;23621;50.878;4.584;2024-01-15T06:42:03;8.90;65.10
37782;DHT22;23621;50.878;4.584;2024-01-15T06:44:04;8.90;65.00
37782;DHT22;23621;50.878;4.584;2024-01-15T06:46:05;8.90;64.90
37782;DHT22;23621;50.878;4.584;2024-01-15T06:48:06;8.80;64.60
37782;DHT22;23621;50.878;4.584;2024-01-15T06:50:08;8.80;64.70
37782;DHT22;23621;50.878;4.584;2024-01-15T06:52:08;8.70;64.40
37782;DHT22;23621;50.878;4.584;2024-01-15T06:54:09;8.60;64.50
37782;DHT22;23621;50.878;4.584;2024-01-15T06:56:10;8.60;64.70
37782;DHT22;23621;50.878;4.584;2024-01-15T06:58:11;8.50;64.80
37782;DHT22;23621;50.878;4.584;2024-01-15T07:00:14;8.50;65.10
37782;DHT22;23621;50.878;4.584;2024-01-15T07:02:15;8.50;65.20
37782;DHT22;23621;50.878;4.584;2024-01-15T07:04:16;8.50;65.10
37782;DHT22;23621;50.878;4.584;2024-01-15T07:06:17;8.50;65.00
37782;DHT22;23621;50.878;4.584;2024-01-15T07:08:18;8.40;65.00
37782;DHT22;23621;50.878;4.584;2024-01-15T07:10:18;8.50;65.20
37782;DHT22;23621;50.878;4.584;2024-01-15T07:12:19;8.50;65.00
37782;DHT22;23621;50.878;4.584;2024-01-15T07:14:20;8.50;65.00
37782;DHT22;23621;50.878;4.584;2024-01-15T07:16:20;8.50;65.00
37782;DHT22;23621;50.878;4.584;2024-01-15T07:18:21;8.50;65.00
37782;DHT22;23621;50.878;4.584;2024-01-15T07:20:22;8.50;65.00
37782;DHT22;23621;50.878;4.584;2024-01-15T07:22:23;8.40;65.00
37782;DHT22;23621;50.878;4.584;2024-01-15T07:24:23;8.40;65.10
37782;DHT22;23621;50.878;4.584;2024-01-15T07:26:24;8.50;65.10
37782;DHT22;23621;50.878;4.584;2024-01-15T07:28:25;8.50;65.00
37782;DHT22;23621;50.878;4.584;2024-01-15T07:30:29;8.40;64.90
37782;DHT22;23621;50.878;4.584;2024-01-15T07:32:30;8.40;65.10
37782;DHT22;23621;50.878;4.584;2024-01-15T07:34:31;8.40;65.10
37782;DHT22;23621;50.878;4.584;2024-01-15T07:36:32;8.40;65.30
37782;DHT22;23621;50.878;4.584;2024-01-15T07:38:33;8.50;65.30
37782;DHT22;23621;50.878;4.584;2024-01-15T07:40:34;8.50;65.10
37782;DHT22;23621;50.878;4.584;2024-01-15T07:42:35;8.40;65.10
37782;DHT22;23621;50.878;4.584;2024-01-15T07:44:35;8.30;65.40
37782;DHT22;23621;50.878;4.584;2024-01-15T07:46:36;8.50;65.40
37782;DHT22;23621;50.878;4.584;2024-01-15T07:48:37;8.40;65.30
37782;DHT22;23621;50.878;4.584;2024-01-15T07:50:38;8.50;65.10
37782;DHT22;23621;50.878;4.584;2024-01-15T07:52:40;8.50;65.10
37782;DHT22;23621;50.878;4.584;2024-01-15T07:54:42;8.60;65.00
37782;DHT22;23621;50.878;4.584;2024-01-15T07:56:59;8.70;64.90
37782;DHT22;23621;50.878;4.584;2024-01-15T07:59:00;8.70;64.60
37782;DHT22;23621;50.878;4.584;2024-01-15T08:01:00;8.50;64.80
37782;DHT22;23621;50.878;4.584;2024-01-15T08:03:01;8.60;64.80
37782;DHT22;23621;50.878;4.584;2024-01-15T08:05:03;8.60;64.90
37782;DHT22;23621;50.878;4.584;2024-01-15T08:07:04;8.60;65.00
37782;DHT22;23621;50.878;4.584;2024-01-15T08:09:06;8.70;64.90
37782;DHT22;23621;50.878;4.584;2024-01-15T08:11:06;8.70;64.80
37782;DHT22;23621;50.878;4.584;2024-01-15T08:13:07;8.80;64.80
37782;DHT22;23621;50.878;4.584;2024-01-15T08:15:09;8.80;64.70
37782;DHT22;23621;50.878;4.584;2024-01-15T08:17:10;8.70;64.60
37782;DHT22;23621;50.878;4.584;2024-01-15T08:19:11;8.60;65.00
37782;DHT22;23621;50.878;4.584;2024-01-15T08:21:11;8.60;64.90
37782;DHT22;23621;50.878;4.584;2024-01-15T08:23:12;8.60;64.80
37782;DHT22;23621;50.878;4.584;2024-01-15T08:25:13;8.60;64.90
37782;DHT22;23621;50.878;4.584;2024-01-15T08:27:14;8.60;64.80
37782;DHT22;23621;50.878;4.584;2024-01-15T08:29:14;8.70;64.90
37782;DHT22;23621;50.878;4.584;2024-01-15T08:31:15;8.70;64.60
37782;DHT22;23621;50.878;4.584;2024-01-15T08:33:16;8.50;64.70
37782;DHT22;23621;50.878;4.584;2024-01-15T08:35:17;8.50;64.50
37782;DHT22;23621;50.878;4.584;2024-01-15T08:37:18;8.60;64.40
37782;DHT22;23621;50.878;4.584;2024-01-15T08:39:19;8.60;64.30
37782;DHT22;23621;50.878;4.584;2024-01-15T08:41:19;8.60;64.40
37782;DHT22;23621;50.878;4.584;2024-01-15T08:43:20;8.50;64.10
37782;DHT22;23621;50.878;4.584;2024-01-15T08:45:21;8.50;64.10
37782;DHT22;23621;50.878;4.584;2024-01-15T08:47:22;8.70;64.20
37782;DHT22;23621;50.878;4.584;2024-01-15T08:49:22;8.70;63.70
37782;DHT22;23621;50.878;4.584;2024-01-15T08:51:23;8.70;63.70
37782;DHT22;23621;50.878;4.584;2024-01-15T08:53:24;8.60;63.50
37782;DHT22;23621;50.878;4.584;2024-01-15T08:55:24;8.70;63.70
37782;DHT22;23621;50.878;4.584;2024-01-15T08:57:25;8.70;63.50
37782;DHT22;23621;50.878;4.584;2024-01-15T08:59:26;8.50;63.30
37782;DHT22;23621;50.878;4.584;2024-01-15T09:01:27;8.50;63.70
37782;DHT22;23621;50.878;4.584;2024-01-15T09:03:27;8.60;63.30
37782;DHT22;23621;50.878;4.584;2024-01-15T09:05:28;8.40;63.50
37782;DHT22;23621;50.878;4.584;2024-01-15T09:07:29;8.50;63.40
37782;DHT22;23621;50.878;4.584;2024-01-15T09:09:29;8.40;63.30
37782;DHT22;23621;50.878;4.584;2024-01-15T09:11:30;8.40;63.20
37782;DHT22;23621;50.878;4.584;2024-01-15T09:13:32;8.60;63.20
37782;DHT22;23621;50.878;4.584;2024-01-15T09:15:32;8.50;62.90
37782;DHT22;23621;50.878;4.584;2024-01-15T09:17:33;8.50;63.00
37782;DHT22;23621;50.878;4.584;2024-01-15T09:19:34;8.60;62.80
37782;DHT22;23621;50.878;4.584;2024-01-15T09:21:34;8.50;62.60
37782;DHT22;23621;50.878;4.584;2024-01-15T09:23:35;8.70;62.60
37782;DHT22;23621;50.878;4.584;2024-01-15T09:25:36;8.60;62.50
37782;DHT22;23621;50.878;4.584;2024-01-15T09:27:37;8.50;62.40
37782;DHT22;23621;50.878;4.584;2024-01-15T09:29:38;8.50;62.30
37782;DHT22;23621;50.878;4.584;2024-01-15T09:31:40;8.60;62.40
37782;DHT22;23621;50.878;4.584;2024-01-15T09:33:42;8.40;62.10
37782;DHT22;23621;50.878;4.584;2024-01-15T09:35:42;8.50;62.00
37782;DHT22;23621;50.878;4.584;2024-01-15T09:37:43;8.40;62.20
37782;DHT22;23621;50.878;4.584;2024-01-15T09:39:44;8.50;62.00
37782;DHT22;23621;50.878;4.584;2024-01-15T09:41:45;8.50;62.10
37782;DHT22;23621;50.878;4.584;2024-01-15T09:43:46;8.60;62.10
37782;DHT22;23621;50.878;4.584;2024-01-15T09:45:47;8.50;61.90
37782;DHT22;23621;50.878;4.584;2024-01-15T09:47:49;8.50;62.00
37782;DHT22;23621;50.878;4.584;2024-01-15T09:49:49;8.40;61.80
37782;DHT22;23621;50.878;4.584;2024-01-15T09:51:51;8.50;61.90
37782;DHT22;23621;50.878;4.584;2024-01-15T09:53:52;8.50;61.80
37782;DHT22;23621;50.878;4.584;2024-01-15T09:55:53;8.40;61.80
37782;DHT22;23621;50.878;4.584;2024-01-15T09:57:55;8.40;61.90
37782;DHT22;23621;50.878;4.584;2024-01-15T09:59:59;8.40;61.80
37782;DHT22;23621;50.878;4.584;2024-01-15T10:02:01;8.40;62.00
37782;DHT22;23621;50.878;4.584;2024-01-15T10:04:02;8.50;61.90
37782;DHT22;23621;50.878;4.584;2024-01-15T10:06:03;8.60;61.80
37782;DHT22;23621;50.878;4.584;2024-01-15T10:08:05;8.50;61.40
37782;DHT22;23621;50.878;4.584;2024-01-15T10:10:07;8.50;61.20
37782;DHT22;23621;50.878;4.584;2024-01-15T10:12:09;8.60;61.20
37782;DHT22;23621;50.878;4.584;2024-01-15T10:14:11;8.70;61.20
37782;DHT22;23621;50.878;4.584;2024-01-15T10:16:15;8.70;61.00
37782;DHT22;23621;50.878;4.584;2024-01-15T10:18:15;8.60;60.70
37782;DHT22;23621;50.878;4.584;2024-01-15T10:20:16;8.80;61.00
37782;DHT22;23621;50.878;4.584;2024-01-15T10:22:17;8.80;60.50
37782;DHT22;23621;50.878;4.584;2024-01-15T10:24:18;9.00;60.60
37782;DHT22;23621;50.878;4.584;2024-01-15T10:26:24;8.90;60.20
37782;DHT22;23621;50.878;4.584;2024-01-15T10:28:26;8.80;60.20
37782;DHT22;23621;50.878;4.584;2024-01-15T10:30:27;9.00;60.30
37782;DHT22;23621;50.878;4.584;2024-01-15T10:32:28;8.80;59.90
37782;DHT22;23621;50.878;4.584;2024-01-15T10:34:30;8.90;60.40
37782;DHT22;23621;50.878;4.584;2024-01-15T10:36:31;9.00;60.30
37782;DHT22;23621;50.878;4.584;2024-01-15T10:38:31;8.90;60.10
37782;DHT22;23621;50.878;4.584;2024-01-15T10:40:32;8.90;60.20
37782;DHT22;23621;50.878;4.584;2024-01-15T10:42:33;8.70;60.00
37782;DHT22;23621;50.878;4.584;2024-01-15T10:44:34;8.90;60.40
37782;DHT22;23621;50.878;4.584;2024-01-15T10:46:35;8.90;60.40
37782;DHT22;23621;50.878;4.584;2024-01-15T10:48:37;9.10;60.40
37782;DHT22;23621;50.878;4.584;2024-01-15T10:50:38;9.00;60.40
37782;DHT22;23621;50.878;4.584;2024-01-15T10:52:40;9.10;60.30
37782;DHT22;23621;50.878;4.584;2024-01-15T10:54:41;9.20;60.30
37782;DHT22;23621;50.878;4.584;2024-01-15T10:56:43;9.10;59.90
37782;DHT22;23621;50.878;4.584;2024-01-15T10:58:46;8.80;59.90
37782;DHT22;23621;50.878;4.584;2024-01-15T11:00:47;8.80;59.90
37782;DHT22;23621;50.878;4.584;2024-01-15T11:02:48;8.80;60.10
37782;DHT22;23621;50.878;4.584;2024-01-15T11:04:49;8.90;60.50
37782;DHT22;23621;50.878;4.584;2024-01-15T11:06:52;9.00;60.10
37782;DHT22;23621;50.878;4.584;2024-01-15T11:08:54;9.10;60.20
37782;DHT22;23621;50.878;4.584;2024-01-15T11:10:55;9.00;60.00
37782;DHT22;23621;50.878;4.584;2024-01-15T11:12:57;9.20;60.10
37782;DHT22;23621;50.878;4.584;2024-01-15T11:15:02;9.20;59.80
37782;DHT22;23621;50.878;4.584;2024-01-15T11:17:09;9.40;59.90
37782;DHT22;23621;50.878;4.584;2024-01-15T11:19:12;9.30;59.90
37782;DHT22;23621;50.878;4.584;2024-01-15T11:23:43;9.50;59.70
37782;DHT22;23621;50.878;4.584;2024-01-15T11:25:46;9.80;59.60
37782;DHT22;23621;50.878;4.584;2024-01-15T11:27:51;9.80;59.20
37782;DHT22;23621;50.878;4.584;2024-01-15T11:30:03;9.90;59.10
37782;DHT22;23621;50.878;4.584;2024-01-15T11:32:06;9.80;58.60
37782;DHT22;23621;50.878;4.584;2024-01-15T11:34:08;9.80;59.10
37782;DHT22;23621;50.878;4.584;2024-01-15T11:36:09;9.60;58.20
37782;DHT22;23621;50.878;4.584;2024-01-15T11:38:09;9.70;58.50
37782;DHT22;23621;50.878;4.584;2024-01-15T11:40:10;9.80;58.50
37782;DHT22;23621;50.878;4.584;2024-01-15T11:42:13;9.80;58.20
37782;DHT22;23621;50.878;4.584;2024-01-15T11:44:15;9.60;58.30
37782;DHT22;23621;50.878;4.584;2024-01-15T11:46:18;9.50;58.30
37782;DHT22;23621;50.878;4.584;2024-01-15T11:48:19;9.50;58.10
37782;DHT22;23621;50.878;4.584;2024-01-15T11:50:21;9.50;57.80
37782;DHT22;23621;50.878;4.584;2024-01-15T11:52:22;9.50;57.90
37782;DHT22;23621;50.878;4.584;2024-01-15T11:54:24;9.40;58.20
37782;DHT22;23621;50.878;4.584;2024-01-15T11:56:26;9.50;58.30
37782;DHT22;23621;50.878;4.584;2024-01-15T11:58:27;9.60;58.20
37782;DHT22;23621;50.878;4.584;2024-01-15T12:00:28;9.60;58.20
37782;DHT22;23621;50.878;4.584;2024-01-15T12:02:29;9.70;58.20
37782;DHT22;23621;50.878;4.584;2024-01-15T12:04:30;9.60;57.50
37782;DHT22;23621;50.878;4.584;2024-01-15T12:06:30;9.70;57.40
37782;DHT22;23621;50.878;4.584;2024-01-15T12:08:31;9.80;57.10
37782;DHT22;23621;50.878;4.584;2024-01-15T12:10:32;9.80;56.80
37782;DHT22;23621;50.878;4.584;2024-01-15T12:14:55;9.60;56.70
37782;DHT22;23621;50.878;4.584;2024-01-15T12:16:56;9.70;56.90
37782;DHT22;23621;50.878;4.584;2024-01-15T12:18:57;9.50;56.70
37782;DHT22;23621;50.878;4.584;2024-01-15T12:20:58;9.50;56.50
37782;DHT22;23621;50.878;4.584;2024-01-15T12:23:00;9.50;56.80
37782;DHT22;23621;50.878;4.584;2024-01-15T12:25:01;9.60;56.90
37782;DHT22;23621;50.878;4.584;2024-01-15T12:27:02;9.80;57.20
37782;DHT22;23621;50.878;4.584;2024-01-15T12:29:03;10.00;56.40
37782;DHT22;23621;50.878;4.584;2024-01-15T12:31:06;10.00;56.20
37782;DHT22;23621;50.878;4.584;2024-01-15T12:33:07;10.10;56.10
37782;DHT22;23621;50.878;4.584;2024-01-15T12:35:10;9.90;57.30
37782;DHT22;23621;50.878;4.584;2024-01-15T12:37:11;9.80;57.30
37782;DHT22;23621;50.878;4.584;2024-01-15T12:39:12;9.90;57.60
37782;DHT22;23621;50.878;4.584;2024-01-15T12:41:14;10.00;56.50
37782;DHT22;23621;50.878;4.584;2024-01-15T12:43:15;9.90;57.50
37782;DHT22;23621;50.878;4.584;2024-01-15T12:45:16;10.00;56.30
37782;DHT22;23621;50.878;4.584;2024-01-15T12:47:18;10.10;56.30
37782;DHT22;23621;50.878;4.584;2024-01-15T12:49:21;9.90;57.20
37782;DHT22;23621;50.878;4.584;2024-01-15T12:51:25;10.10;56.40
37782;DHT22;23621;50.878;4.584;2024-01-15T12:53:26;10.00;56.50
37782;DHT22;23621;50.878;4.584;2024-01-15T12:55:27;10.00;56.80
37782;DHT22;23621;50.878;4.584;2024-01-15T12:57:27;10.10;56.80
37782;DHT22;23621;50.878;4.584;2024-01-15T12:59:28;10.10;57.10
37782;DHT22;23621;50.878;4.584;2024-01-15T13:01:29;10.20;57.20